Terminal Aerodrome Forecast
Issued by NWS St Louis, MO

Home | Current Version | Previous Version | Text Only | Print | Product List | Glossary On
Versions: 1 2 3 4 5 6 7 8 9 10 11 12 13 14 15 16 17 18 19 20 21 22 23 24 25 26 27 28
000
FTUS43 KLSX 221122
TAFCOU
TAF
KCOU 221122Z 2212/2312 18010KT P6SM BKN060
     FM221800 22012G20KT P6SM BKN050
     FM230000 26010KT P6SM BKN050
     FM230500 31007KT P6SM BKN045=

USA.gov is the U.S. government's official web portal to all federal, state and local government web resources and services.